Time;durP1;ratioP1;P1;durP2;ratioP2;P2;SDS_P1;SDS_P2;PMS_P1;PMS_P2;Temp;Humidity;BMP_temperature;BMP_pressure;BME280_temperature;BME280_humidity;BME280_pressure;Samples;Min_cycle;Max_cycle;Signal;HPM_P1;HPM_P2
2023/02/11 00:00:39;;;;;;;34.13;14.23;;;;;;;-145.69;100.00;52610.75;5113013;28;20208;-81
2023/02/11 00:03:05;;;;;;;44.23;15.87;;;;;;;-145.69;100.00;52666.19;5091112;28;20198;-81
2023/02/11 00:05:32;;;;;;;46.30;15.10;;;;;;;-145.69;100.00;52606.78;5092994;28;20204;-81
2023/02/11 00:07:58;;;;;;;40.27;14.93;;;;;;;-145.69;100.00;52630.53;5092915;28;20202;-82
2023/02/11 00:10:25;;;;;;;46.37;16.33;;;;;;;-145.69;100.00;52628.56;5094102;28;20204;-81
2023/02/11 00:12:52;;;;;;;43.50;16.90;;;;;;;-145.69;100.00;52618.66;5097100;28;20529;-81
2023/02/11 00:15:20;;;;;;;40.47;15.67;;;;;;;-145.69;100.00;52646.41;5097322;28;20201;-80
2023/02/11 00:17:48;;;;;;;45.37;15.87;;;;;;;-145.69;100.00;52644.41;5096978;28;20255;-80
2023/02/11 00:20:15;;;;;;;41.83;14.97;;;;;;;-145.69;100.00;52648.38;5096778;28;20198;-81
2023/02/11 00:22:42;;;;;;;40.73;15.90;;;;;;;-145.69;100.00;52638.47;5096786;28;20201;-81
2023/02/11 00:25:09;;;;;;;44.07;16.17;;;;;;;-145.69;100.00;52656.28;5096563;28;20219;-80
2023/02/11 00:27:36;;;;;;;44.60;16.30;;;;;;;-145.69;100.00;52624.59;5096842;28;20194;-82
2023/02/11 00:30:05;;;;;;;42.83;15.87;;;;;;;-145.69;100.00;52614.72;5117183;28;20224;-80
2023/02/11 00:32:31;;;;;;;38.93;14.30;;;;;;;-145.69;100.00;52634.50;5116981;28;20225;-80
2023/02/11 00:34:58;;;;;;;49.80;16.37;;;;;;;-145.69;100.00;52650.34;5116810;28;20209;-80
2023/02/11 00:37:24;;;;;;;51.90;16.50;;;;;;;-145.69;100.00;52632.53;5116489;28;20193;-81
2023/02/11 00:39:51;;;;;;;42.90;15.77;;;;;;;-145.69;100.00;52616.69;5116111;28;20197;-80
2023/02/11 00:42:17;;;;;;;44.70;16.60;;;;;;;-145.69;100.00;52642.44;5116580;28;20221;-80
2023/02/11 00:44:44;;;;;;;40.60;15.20;;;;;;;-145.69;100.00;52602.81;5117009;28;20193;-81
2023/02/11 00:47:12;;;;;;;39.57;15.10;;;;;;;-145.69;100.00;52662.22;5117343;28;20606;-80
2023/02/11 00:49:39;;;;;;;45.10;15.13;;;;;;;-145.69;100.00;52598.84;5117027;28;20679;-81
2023/02/11 00:52:05;;;;;;;36.90;14.37;;;;;;;-145.69;100.00;52636.50;5117430;27;20252;-81
2023/02/11 00:54:32;;;;;;;43.20;16.60;;;;;;;-145.69;100.00;52666.19;5117140;28;20652;-80
2023/02/11 00:56:58;;;;;;;47.97;15.03;;;;;;;-145.69;100.00;52634.50;5116490;28;20209;-80
2023/02/11 00:59:25;;;;;;;43.20;16.17;;;;;;;-145.69;100.00;52598.84;5100998;28;20198;-81
2023/02/11 01:01:51;;;;;;;45.07;15.87;;;;;;;-145.69;100.00;52640.44;5096225;28;20209;-81
2023/02/11 01:04:19;;;;;;;50.90;17.47;;;;;;;-145.69;100.00;52608.75;5104782;28;20208;-80
2023/02/11 01:06:45;;;;;;;58.72;23.33;;;;;;;-145.69;100.00;52626.59;5115008;28;20474;-81
2023/02/11 01:09:12;;;;;;;48.70;18.17;;;;;;;-145.69;100.00;52634.50;5115900;28;20201;-80
2023/02/11 01:11:39;;;;;;;47.67;17.93;;;;;;;-145.69;100.00;52674.13;5116136;28;20325;-80
2023/02/11 01:14:05;;;;;;;45.03;16.30;;;;;;;-145.69;100.00;52646.41;5116127;28;20563;-80
2023/02/11 01:16:32;;;;;;;43.93;16.40;;;;;;;-145.69;100.00;52626.59;5116461;28;20197;-80
2023/02/11 01:18:58;;;;;;;38.33;15.20;;;;;;;-145.69;100.00;52628.56;5116044;28;20203;-80
2023/02/11 01:21:26;;;;;;;49.03;16.83;;;;;;;-145.69;100.00;52642.44;5115878;28;20225;-80
2023/02/11 01:23:53;;;;;;;43.20;15.80;;;;;;;-145.69;100.00;52662.22;5115944;28;20194;-80
2023/02/11 01:26:19;;;;;;;43.40;16.27;;;;;;;-145.69;100.00;52630.53;5095729;28;20194;-80
2023/02/11 01:28:46;;;;;;;46.33;17.13;;;;;;;-145.69;100.00;52632.53;5095930;28;20201;-81
2023/02/11 01:31:12;;;;;;;48.27;18.53;;;;;;;-145.69;100.00;52610.75;5095410;28;20218;-79
2023/02/11 01:33:39;;;;;;;47.97;17.37;;;;;;;-145.69;100.00;52602.81;5095180;28;20194;-79
2023/02/11 01:36:06;;;;;;;52.93;17.63;;;;;;;-145.69;100.00;52642.44;5112181;28;20201;-80
2023/02/11 01:38:34;;;;;;;48.57;16.47;;;;;;;-145.69;100.00;52642.44;5115540;28;20204;-80
2023/02/11 01:41:04;;;;;;;45.33;17.47;;;;;;;-145.69;100.00;52614.72;5101632;28;20204;-80
2023/02/11 01:43:33;;;;;;;48.97;19.27;;;;;;;-145.69;100.00;52638.47;5095032;28;20230;-81
2023/02/11 01:46:04;;;;;;;48.23;18.73;;;;;;;-145.69;100.00;52662.22;5095065;28;20202;-80
2023/02/11 01:48:34;;;;;;;46.40;18.17;;;;;;;-145.69;100.00;52634.50;5095121;28;20661;-81
2023/02/11 01:51:04;;;;;;;49.20;18.37;;;;;;;-145.69;100.00;52622.63;5095039;28;20213;-81
2023/02/11 01:59:09;;;;;;;47.57;17.70;;;;;;;-145.69;100.00;52654.31;5072876;28;20251;-80
2023/02/11 02:01:39;;;;;;;45.80;17.60;;;;;;;-145.69;100.00;52642.44;5075507;28;20210;-80
2023/02/11 02:04:07;;;;;;;51.93;19.10;;;;;;;-145.69;100.00;52634.50;5080400;28;20193;-80
2023/02/11 02:06:37;;;;;;;55.40;20.03;;;;;;;-145.69;100.00;52650.34;5110391;28;20206;-80
2023/02/11 02:09:07;;;;;;;53.33;18.43;;;;;;;-145.69;100.00;52622.63;5094559;28;20224;-80
2023/02/11 02:11:36;;;;;;;51.23;19.37;;;;;;;-145.69;100.00;52654.31;5094893;28;20308;-80
2023/02/11 02:14:03;;;;;;;42.80;16.47;;;;;;;-145.69;100.00;52666.19;5094756;28;20206;-80
2023/02/11 02:16:33;;;;;;;49.53;17.33;;;;;;;-145.69;100.00;52632.53;5098236;28;20189;-80
2023/02/11 02:19:19;;;;;;;47.30;16.60;;;;;;;-145.69;100.00;52642.44;5114927;28;20198;-80
2023/02/11 02:22:05;;;;;;;50.83;18.47;;;;;;;-145.69;100.00;52682.03;5114755;28;20205;-81
2023/02/11 02:24:56;;;;;;;50.03;16.87;;;;;;;-145.69;100.00;52618.66;5114704;28;20197;-81
2023/02/11 02:27:39;;;;;;;51.70;18.73;;;;;;;-145.69;100.00;52640.44;5114710;28;20556;-80
2023/02/11 02:30:25;;;;;;;50.53;17.57;;;;;;;-145.69;100.00;52640.44;5092326;28;20194;-80
2023/02/11 02:33:06;;;;;;;55.87;19.33;;;;;;;-145.69;100.00;52630.53;5094939;28;20218;-79
2023/02/11 02:35:40;;;;;;;49.50;19.17;;;;;;;-145.69;100.00;52614.72;5093871;28;20198;-80
2023/02/11 02:38:12;;;;;;;54.17;18.90;;;;;;;-145.69;100.00;52606.78;5094078;28;20204;-80
2023/02/11 02:40:45;;;;;;;61.97;20.93;;;;;;;-145.69;100.00;52622.63;5098095;28;20295;-80
2023/02/11 02:43:13;;;;;;;60.43;20.00;;;;;;;-145.69;100.00;52606.78;5114210;28;20597;-80
2023/02/11 02:45:39;;;;;;;55.83;19.73;;;;;;;-145.69;100.00;52640.44;5114508;28;20298;-80
2023/02/11 02:48:07;;;;;;;55.83;18.87;;;;;;;-145.69;100.00;52624.59;5114139;28;20660;-80
2023/02/11 02:50:35;;;;;;;56.50;20.37;;;;;;;-145.69;100.00;52642.44;5113931;28;20208;-79
2023/02/11 02:53:18;;;;;;;45.80;17.27;;;;;;;-145.69;100.00;52648.38;5111859;28;20225;-81
2023/02/11 02:55:59;;;;;;;60.97;19.03;;;;;;;-145.69;100.00;52622.63;5114330;28;20262;-81
2023/02/11 02:59:02;;;;;;;54.87;19.97;;;;;;;-145.69;100.00;52610.75;5113940;27;20201;-80
2023/02/11 03:01:39;;;;;;;42.10;16.23;;;;;;;-145.69;100.00;52632.53;5082985;28;20205;-81
2023/02/11 03:04:17;;;;;;;41.60;17.20;;;;;;;-145.69;100.00;52634.50;5093654;28;20545;-80
2023/02/11 03:06:52;;;;;;;46.83;18.73;;;;;;;-145.69;100.00;52612.72;5093785;28;20198;-81
2023/02/11 03:09:23;;;;;;;58.77;20.50;;;;;;;-145.69;100.00;52630.53;5093609;28;20190;-80
2023/02/11 03:11:50;;;;;;;55.80;18.33;;;;;;;-145.69;100.00;52658.28;5093503;28;20222;-80
2023/02/11 03:14:19;;;;;;;48.93;18.73;;;;;;;-145.69;100.00;52622.63;5093585;28;20205;-81
2023/02/11 03:16:49;;;;;;;45.87;17.47;;;;;;;-145.69;100.00;52634.50;5093519;28;20198;-81
2023/02/11 03:19:20;;;;;;;58.47;18.93;;;;;;;-145.69;100.00;52614.72;5093296;28;20201;-81
2023/02/11 03:21:49;;;;;;;52.60;18.73;;;;;;;-145.69;100.00;52626.59;5104715;28;20861;-80
2023/02/11 03:24:21;;;;;;;57.20;19.30;;;;;;;-145.69;100.00;52646.41;5113706;28;20197;-82
2023/02/11 03:26:51;;;;;;;57.40;18.57;;;;;;;-145.69;100.00;52618.66;5113821;28;20200;-82
2023/02/11 03:29:28;;;;;;;54.87;18.50;;;;;;;-145.69;100.00;52644.41;5109651;28;20658;-81
2023/02/11 03:32:01;;;;;;;53.23;19.87;;;;;;;-145.69;100.00;52656.28;5111238;28;20699;-81
2023/02/11 03:34:34;;;;;;;53.40;19.37;;;;;;;-145.69;100.00;52636.50;5094908;28;20569;-81
2023/02/11 03:37:05;;;;;;;48.10;18.83;;;;;;;-145.69;100.00;52642.44;5093429;28;20608;-80
2023/02/11 03:39:37;;;;;;;70.70;19.63;;;;;;;-145.69;100.00;52658.28;5093490;28;20202;-81
2023/02/11 03:42:07;;;;;;;56.17;19.50;;;;;;;-145.69;100.00;52612.72;5093141;28;20237;-80
2023/02/11 03:44:38;;;;;;;52.13;18.87;;;;;;;-145.69;100.00;52626.59;5092855;28;20198;-81
2023/02/11 03:47:07;;;;;;;53.10;19.00;;;;;;;-145.69;100.00;52644.41;5113467;28;20205;-80
2023/02/11 03:49:39;;;;;;;49.43;18.93;;;;;;;-145.69;100.00;52616.69;5113446;28;20296;-80
2023/02/11 03:52:10;;;;;;;50.20;17.50;;;;;;;-145.69;100.00;52622.63;5112715;28;20232;-80
2023/02/11 03:54:40;;;;;;;54.00;18.67;;;;;;;-145.69;100.00;52668.19;5113455;28;20201;-80
2023/02/11 03:57:07;;;;;;;48.70;16.87;;;;;;;-145.69;100.00;52660.25;5112955;28;20228;-80
2023/02/11 03:59:49;;;;;;;49.80;19.00;;;;;;;-145.69;100.00;52644.41;5113441;28;20579;-81
2023/02/11 04:02:16;;;;;;;51.87;17.40;;;;;;;-145.69;100.00;52650.34;5113503;28;20201;-81
2023/02/11 04:04:44;;;;;;;47.73;17.50;;;;;;;-145.69;100.00;52636.50;5100672;28;20194;-81
2023/02/11 04:07:11;;;;;;;49.20;17.40;;;;;;;-145.69;100.00;52636.50;5092801;28;20220;-80
2023/02/11 04:09:38;;;;;;;46.97;17.17;;;;;;;-145.69;100.00;52626.59;5093304;28;20194;-80
2023/02/11 04:12:05;;;;;;;51.73;17.23;;;;;;;-145.69;100.00;52630.53;5092574;28;20234;-80
2023/02/11 04:14:31;;;;;;;46.13;17.20;;;;;;;-145.69;100.00;52628.56;5092865;28;20259;-80
2023/02/11 04:16:58;;;;;;;46.17;17.23;;;;;;;-145.69;100.00;52626.59;5092635;28;20724;-80
2023/02/11 04:19:24;;;;;;;54.87;18.97;;;;;;;-145.69;100.00;52634.50;5092613;28;20645;-80
2023/02/11 04:21:52;;;;;;;47.67;17.10;;;;;;;-145.69;100.00;52636.50;5102549;28;20220;-80
2023/02/11 04:24:18;;;;;;;50.13;17.60;;;;;;;-145.69;100.00;52648.38;5112998;28;20220;-80
2023/02/11 04:26:45;;;;;;;56.27;19.10;;;;;;;-145.69;100.00;52642.44;5112990;28;20193;-80
2023/02/11 04:29:11;;;;;;;50.73;17.40;;;;;;;-145.69;100.00;52654.31;5107953;28;20194;-80
2023/02/11 04:31:38;;;;;;;55.10;17.57;;;;;;;-145.69;100.00;52654.31;5096652;28;20688;-81
2023/02/11 04:34:04;;;;;;;58.23;18.70;;;;;;;-145.69;100.00;52656.28;5092705;28;20206;-81
2023/02/11 04:36:31;;;;;;;52.63;18.80;;;;;;;-145.69;100.00;52622.63;5092707;28;20198;-80
2023/02/11 04:38:58;;;;;;;53.93;18.03;;;;;;;-145.69;100.00;52622.63;5092471;28;20204;-80
2023/02/11 04:41:25;;;;;;;54.27;17.43;;;;;;;-145.69;100.00;52636.50;5092308;28;20199;-79
2023/02/11 04:43:51;;;;;;;56.27;19.10;;;;;;;-145.69;100.00;52650.34;5092731;28;20206;-80
2023/02/11 04:46:18;;;;;;;48.10;18.10;;;;;;;-145.69;100.00;52650.34;5092672;28;20619;-81
2023/02/11 04:48:44;;;;;;;60.40;17.83;;;;;;;-145.69;100.00;52636.50;5092591;28;20285;-80
2023/02/11 04:51:11;;;;;;;52.73;17.40;;;;;;;-145.69;100.00;52674.13;5098458;28;20199;-79
2023/02/11 04:53:38;;;;;;;47.33;16.23;;;;;;;-145.69;100.00;52628.56;5094510;28;20226;-79
2023/02/11 04:56:06;;;;;;;46.20;16.33;;;;;;;-145.69;100.00;52628.56;5092532;28;20205;-80
2023/02/11 04:58:33;;;;;;;45.03;16.00;;;;;;;-145.69;100.00;52632.53;5095557;28;20194;-80
2023/02/11 05:01:05;;;;;;;47.67;16.83;;;;;;;-145.69;100.00;52638.47;5096064;28;20201;-80
2023/02/11 05:03:34;;;;;;;45.63;17.07;;;;;;;-145.69;100.00;52691.94;5096039;28;20220;-81
2023/02/11 05:06:00;;;;;;;49.63;16.27;;;;;;;-145.69;100.00;52626.59;5095878;28;20194;-80
2023/02/11 05:08:27;;;;;;;46.93;16.43;;;;;;;-145.69;100.00;52650.34;5095883;28;20733;-82
2023/02/11 05:10:54;;;;;;;45.27;15.83;;;;;;;-145.69;100.00;52636.50;5095924;28;20209;-82
2023/02/11 05:13:22;;;;;;;44.23;16.50;;;;;;;-145.69;100.00;52678.09;5095822;28;20226;-82
2023/02/11 05:15:48;;;;;;;51.10;15.33;;;;;;;-145.69;100.00;52654.31;5108962;28;20815;-80
2023/02/11 05:18:15;;;;;;;45.80;15.77;;;;;;;-145.69;100.00;52642.44;5115999;28;20220;-81
2023/02/11 05:20:42;;;;;;;45.03;16.03;;;;;;;-145.69;100.00;52636.50;5112541;28;20193;-82
2023/02/11 05:23:08;;;;;;;50.97;16.83;;;;;;;-145.69;100.00;52634.50;5095839;28;20552;-81
2023/02/11 05:25:35;;;;;;;45.87;16.13;;;;;;;-145.69;100.00;52622.63;5095874;28;20210;-82
2023/02/11 05:28:01;;;;;;;50.03;15.93;;;;;;;-145.69;100.00;52626.59;5108264;28;20194;-81
2023/02/11 05:30:33;;;;;;;46.87;16.40;;;;;;;-145.69;100.00;52620.66;5116167;28;20215;-81
2023/02/11 05:32:59;;;;;;;42.83;14.93;;;;;;;-145.69;100.00;52630.53;5115931;28;20224;-82
2023/02/11 05:35:27;;;;;;;38.10;14.10;;;;;;;-145.69;100.00;52650.34;5115843;28;20226;-80
2023/02/11 05:37:54;;;;;;;35.10;13.90;;;;;;;-145.69;100.00;52632.53;5115695;28;20747;-80
2023/02/11 05:40:20;;;;;;;42.05;17.35;;;;;;;-145.69;100.00;52684.03;5114424;28;20441;-80
2023/02/11 05:42:47;;;;;;;44.20;14.80;;;;;;;-145.69;100.00;52638.47;5115442;28;20584;-81
2023/02/11 05:45:16;;;;;;;34.33;14.67;;;;;;;-145.69;100.00;52618.66;5115486;28;20695;-80
2023/02/11 05:47:47;;;;;;;37.43;13.93;;;;;;;-145.69;100.00;52608.75;5115469;28;20679;-80
2023/02/11 05:50:15;;;;;;;32.37;13.13;;;;;;;-145.69;100.00;52636.50;5114265;28;20549;-80
2023/02/11 05:52:42;;;;;;;38.27;14.63;;;;;;;-145.69;100.00;52638.47;5115298;28;20224;-80
2023/02/11 05:55:11;;;;;;;34.10;13.27;;;;;;;-145.69;100.00;52614.72;5114966;28;20197;-80
2023/02/11 05:57:37;;;;;;;31.90;12.27;;;;;;;-145.69;100.00;52642.44;5115378;28;20303;-81
2023/02/11 06:00:05;;;;;;;31.90;11.20;;;;;;;-145.69;100.00;52654.31;5114527;28;20197;-80
2023/02/11 06:02:33;;;;;;;33.50;11.90;;;;;;;-145.69;100.00;52632.53;5104003;28;20233;-81
2023/02/11 06:05:04;;;;;;;36.60;13.00;;;;;;;-145.69;100.00;52662.22;5097207;28;20194;-81
2023/02/11 06:07:34;;;;;;;35.97;12.40;;;;;;;-145.69;100.00;52650.34;5094482;28;20202;-81
2023/02/11 06:10:03;;;;;;;30.97;12.83;;;;;;;-145.69;100.00;52596.88;5094628;28;20206;-81
2023/02/11 06:12:32;;;;;;;32.73;13.73;;;;;;;-145.69;100.00;52648.38;5094802;28;20229;-80
2023/02/11 06:14:59;;;;;;;28.40;11.20;;;;;;;-145.69;100.00;52622.63;5101422;28;20198;-81
2023/02/11 06:17:27;;;;;;;28.77;12.10;;;;;;;-145.69;100.00;52598.84;5115297;28;20209;-80
2023/02/11 06:20:01;;;;;;;27.60;11.07;;;;;;;-145.69;100.00;52616.69;5115048;28;20221;-82
2023/02/11 06:22:29;;;;;;;27.20;11.10;;;;;;;-145.69;100.00;52654.31;5114839;28;20197;-82
2023/02/11 06:25:02;;;;;;;30.83;11.67;;;;;;;-145.69;100.00;52648.38;5114888;28;20617;-82
2023/02/11 06:27:31;;;;;;;31.87;12.40;;;;;;;-145.69;100.00;52585.00;5099349;28;20826;-80
2023/02/11 06:29:58;;;;;;;32.17;12.10;;;;;;;-145.69;100.00;52585.00;5094384;28;20656;-81
2023/02/11 06:32:24;;;;;;;36.47;12.70;;;;;;;-145.69;100.00;52606.78;5094132;28;20225;-82
2023/02/11 06:34:51;;;;;;;37.83;13.03;;;;;;;-145.69;100.00;52606.78;5094281;28;20193;-82
2023/02/11 06:37:17;;;;;;;31.50;12.83;;;;;;;-145.69;100.00;52622.63;5093886;28;20660;-82
2023/02/11 06:39:48;;;;;;;30.97;11.93;;;;;;;-145.69;100.00;52604.81;5108628;28;20205;-82
2023/02/11 06:42:15;;;;;;;32.20;12.80;;;;;;;-145.69;100.00;52658.28;5114370;28;20225;-81
2023/02/11 06:44:50;;;;;;;33.83;12.30;;;;;;;-145.69;100.00;52626.59;5114025;28;20198;-81
2023/02/11 06:47:16;;;;;;;29.40;11.77;;;;;;;-145.69;100.00;52634.50;5114380;28;20717;-82
2023/02/11 06:49:43;;;;;;;27.60;11.57;;;;;;;-145.69;100.00;52610.75;5114481;28;20201;-81
2023/02/11 06:52:09;;;;;;;27.47;11.43;;;;;;;-145.69;100.00;52620.66;5113936;28;20599;-81
2023/02/11 06:54:36;;;;;;;34.40;11.03;;;;;;;-145.69;100.00;52636.50;5113981;28;20233;-80
2023/02/11 06:57:04;;;;;;;28.20;11.50;;;;;;;-145.69;100.00;52596.88;5114256;28;20205;-81
2023/02/11 06:59:33;;;;;;;26.97;10.97;;;;;;;-145.69;100.00;52664.22;5114026;28;20660;-80
2023/02/11 07:02:00;;;;;;;28.17;11.90;;;;;;;-145.69;100.00;52606.78;5114115;28;20196;-80
2023/02/11 07:04:27;;;;;;;28.43;10.80;;;;;;;-145.69;100.00;52634.50;5093784;28;20300;-81
2023/02/11 07:06:53;;;;;;;29.17;11.77;;;;;;;-145.69;100.00;52571.13;5093408;28;20197;-80
2023/02/11 07:09:26;;;;;;;31.03;12.50;;;;;;;-145.69;100.00;52624.59;5093344;28;20248;-81
2023/02/11 07:11:52;;;;;;;29.30;11.20;;;;;;;-145.69;100.00;52618.66;5093722;28;20221;-81
2023/02/11 07:14:20;;;;;;;28.50;10.93;;;;;;;-145.69;100.00;52610.75;5101406;28;20221;-81
2023/02/11 07:16:49;;;;;;;29.47;11.67;;;;;;;-145.69;100.00;52604.81;5113824;28;20197;-82
2023/02/11 07:19:16;;;;;;;26.47;11.90;;;;;;;-145.69;100.00;52646.41;5113313;28;20200;-81
2023/02/11 07:21:44;;;;;;;35.03;13.67;;;;;;;-145.69;100.00;52666.19;5113471;28;20258;-81
2023/02/11 07:24:11;;;;;;;33.13;12.20;;;;;;;-145.69;100.00;52624.59;5113235;28;20204;-80
2023/02/11 07:26:40;;;;;;;28.47;10.17;;;;;;;-145.69;100.00;52656.28;5097505;28;20194;-79
2023/02/11 07:29:06;;;;;;;31.35;12.57;;;;;;;-145.69;100.00;52590.94;5113156;28;20525;-79
2023/02/11 07:31:34;;;;;;;28.30;11.53;;;;;;;-145.69;100.00;52586.97;5113368;28;20201;-80
2023/02/11 07:34:07;;;;;;;28.70;10.77;;;;;;;-145.69;100.00;52596.88;5113391;28;20281;-80
2023/02/11 07:36:33;;;;;;;30.23;12.00;;;;;;;-145.69;100.00;52646.41;5099819;28;20191;-81
2023/02/11 07:39:00;;;;;;;29.67;11.10;;;;;;;-145.69;100.00;52602.81;5093223;28;20202;-80
2023/02/11 07:41:27;;;;;;;26.60;11.90;;;;;;;-145.69;100.00;52642.44;5099645;28;20657;-80
2023/02/11 07:43:54;;;;;;;25.17;10.77;;;;;;;-145.69;100.00;52614.72;5107283;28;20193;-80
2023/02/11 07:46:22;;;;;;;31.43;11.77;;;;;;;-145.69;100.00;52596.88;5093017;28;20645;-81
2023/02/11 07:48:54;;;;;;;30.27;11.50;;;;;;;-145.69;100.00;52598.84;5092877;28;20194;-80
2023/02/11 07:51:23;;;;;;;24.53;10.67;;;;;;;-145.69;100.00;52598.84;5092913;28;20206;-81
2023/02/11 07:53:50;;;;;;;23.53;10.37;;;;;;;-145.69;100.00;52622.63;5092998;28;20588;-81
2023/02/11 07:56:20;;;;;;;26.10;10.57;;;;;;;-145.69;100.00;52616.69;5092875;28;20207;-80
2023/02/11 07:58:47;;;;;;;23.97;10.13;;;;;;;-145.69;100.00;52624.59;5092967;28;20288;-81
2023/02/11 08:01:21;;;;;;;24.43;9.47;;;;;;;-145.69;100.00;52606.78;5104984;28;20198;-81
2023/02/11 08:03:48;;;;;;;24.37;9.67;;;;;;;-145.69;100.00;52626.59;5113245;28;20706;-80
2023/02/11 08:06:19;;;;;;;24.53;9.90;;;;;;;-145.69;100.00;52590.94;5093748;28;20197;-81
2023/02/11 08:08:46;;;;;;;23.53;9.63;;;;;;;-145.69;100.00;52610.75;5092820;28;20204;-80
2023/02/11 08:11:17;;;;;;;25.53;11.20;;;;;;;-145.69;100.00;52569.16;5089358;28;20276;-80
2023/02/11 08:13:46;;;;;;;27.63;11.23;;;;;;;-145.69;100.00;52604.81;5072524;28;20230;-81
2023/02/11 08:16:19;;;;;;;26.40;11.83;;;;;;;-145.69;100.00;52606.78;5073896;28;20294;-81
2023/02/11 08:18:52;;;;;;;24.60;10.00;;;;;;;-145.69;100.00;52573.13;5092915;28;20198;-82
2023/02/11 08:21:22;;;;;;;21.30;9.50;;;;;;;-145.69;100.00;52579.06;5092770;28;20199;-81
2023/02/11 08:23:49;;;;;;;18.90;9.07;;;;;;;-145.69;100.00;52577.06;5092799;28;20213;-81
2023/02/11 08:26:18;;;;;;;16.87;8.80;;;;;;;-145.69;100.00;52594.91;5092592;28;20202;-81
2023/02/11 08:28:47;;;;;;;20.80;8.60;;;;;;;-145.69;100.00;52626.59;5093213;28;20198;-81
2023/02/11 08:31:18;;;;;;;19.03;8.63;;;;;;;-145.69;100.00;52583.00;5096135;28;20298;-81
2023/02/11 08:33:45;;;;;;;18.17;7.50;;;;;;;-145.69;100.00;52610.75;5096353;28;20248;-82
2023/02/11 08:36:14;;;;;;;16.63;8.40;;;;;;;-145.69;100.00;52581.03;5096510;28;20201;-81
2023/02/11 08:38:42;;;;;;;15.77;7.03;;;;;;;-145.69;100.00;52600.84;5096357;28;20644;-82
2023/02/11 08:41:13;;;;;;;21.10;9.43;;;;;;;-145.69;100.00;52559.25;5097155;28;20201;-82
2023/02/11 08:43:41;;;;;;;28.13;11.57;;;;;;;-145.69;100.00;52571.13;5108400;28;20320;-83
2023/02/11 08:46:08;;;;;;;22.57;9.67;;;;;;;-145.69;100.00;52573.13;5116027;28;20206;-82
2023/02/11 08:48:35;;;;;;;17.70;8.27;;;;;;;-145.69;100.00;52567.16;5117056;28;20217;-82
2023/02/11 08:51:09;;;;;;;15.67;7.50;;;;;;;-145.69;100.00;52581.03;5117201;28;20202;-81
2023/02/11 08:53:37;;;;;;;17.70;8.03;;;;;;;-145.69;100.00;52571.13;5108191;28;20684;-82
2023/02/11 08:56:06;;;;;;;15.43;7.83;;;;;;;-145.69;100.00;52531.53;5096282;28;20241;-81
2023/02/11 08:58:40;;;;;;;16.13;7.53;;;;;;;-145.69;100.00;52590.94;5096507;28;20206;-80
2023/02/11 09:01:12;;;;;;;14.93;7.23;;;;;;;-145.69;100.00;52579.06;5105144;28;20281;-81
2023/02/11 09:03:42;;;;;;;22.50;9.43;;;;;;;-145.69;100.00;52579.06;5116051;28;20214;-80
2023/02/11 09:06:12;;;;;;;27.83;11.60;;;;;;;-145.69;100.00;52583.00;5099614;28;20202;-81
2023/02/11 09:08:42;;;;;;;25.37;11.70;;;;;;;-145.69;100.00;52569.16;5095710;28;20649;-82
2023/02/11 09:11:12;;;;;;;28.93;11.47;;;;;;;-145.69;100.00;52586.97;5092459;28;20198;-83
2023/02/11 09:13:41;;;;;;;27.10;12.20;;;;;;;-145.69;100.00;52594.91;5095494;28;20226;-83
2023/02/11 09:16:07;;;;;;;28.80;12.67;;;;;;;-145.69;100.00;52579.06;5105539;28;20196;-83
2023/02/11 09:18:35;;;;;;;20.97;10.73;;;;;;;-145.69;100.00;52551.31;5116309;28;20193;-83
2023/02/11 09:21:08;;;;;;;21.33;10.90;;;;;;;-145.69;100.00;52592.91;5116009;28;20233;-83
2023/02/11 09:23:40;;;;;;;21.00;9.33;;;;;;;-145.69;100.00;52563.22;5115892;28;20201;-83
2023/02/11 09:26:09;;;;;;;19.33;8.57;;;;;;;-145.69;100.00;52543.41;5115833;28;20231;-82
2023/02/11 09:28:37;;;;;;;19.83;9.20;;;;;;;-145.69;100.00;52598.84;5099935;28;20661;-82
2023/02/11 09:31:05;;;;;;;19.20;8.43;;;;;;;-145.69;100.00;52600.84;5103217;28;20190;-82
2023/02/11 09:33:32;;;;;;;18.17;8.80;;;;;;;-145.69;100.00;52573.13;5114483;28;20221;-83
2023/02/11 09:36:04;;;;;;;16.60;7.67;;;;;;;-145.69;99.33;52553.31;5095692;28;20672;-83
2023/02/11 09:38:32;;;;;;;16.83;7.20;;;;;;;-145.69;95.46;52541.44;5095769;28;20202;-84
2023/02/11 09:41:01;;;;;;;20.97;8.40;;;;;;;-145.69;82.07;52557.28;5100877;28;20675;-83
2023/02/11 09:43:38;;;;;;;20.60;7.57;;;;;;;-145.69;80.39;52541.44;5111191;28;20237;-83
2023/02/11 09:46:07;;;;;;;19.97;8.13;;;;;;;-145.69;72.07;52575.09;5115776;28;20660;-81
2023/02/11 09:48:42;;;;;;;17.20;7.13;;;;;;;-145.69;74.64;52569.16;5097280;28;20194;-86
2023/02/11 09:51:18;;;;;;;16.33;6.77;;;;;;;-145.69;81.04;52579.06;5096687;28;20215;-84
2023/02/11 09:53:47;;;;;;;16.23;7.10;;;;;;;-145.69;78.42;52571.13;5105871;28;20216;-84
2023/02/11 09:56:19;;;;;;;13.37;5.83;;;;;;;-145.69;79.21;52559.25;5117705;28;20266;-85
2023/02/11 09:58:46;;;;;;;15.20;6.13;;;;;;;-145.69;79.08;52563.22;5117245;28;20205;-85
2023/02/11 10:01:30;;;;;;;14.30;5.77;;;;;;;-145.69;76.12;52590.94;5107929;28;20560;-83
2023/02/11 10:04:04;;;;;;;11.60;5.00;;;;;;;-145.69;83.89;52551.31;5095511;28;20202;-84
2023/02/11 10:06:40;;;;;;;15.27;6.00;;;;;;;-145.69;83.31;52559.25;5095462;28;20190;-82
2023/02/11 10:09:32;;;;;;;16.83;6.23;;;;;;;-145.69;81.81;52555.28;5095276;28;20280;-82
2023/02/11 10:12:11;;;;;;;13.70;5.83;;;;;;;-145.69;87.62;52586.97;5074683;28;20207;-81
2023/02/11 10:15:01;;;;;;;11.77;5.60;;;;;;;-145.69;86.25;52571.13;5073929;28;20226;-81
2023/02/11 10:17:36;;;;;;;15.97;5.83;;;;;;;-145.69;85.96;52569.16;5085859;28;20198;-81
2023/02/11 10:20:15;;;;;;;15.47;6.07;;;;;;;-145.69;84.30;52575.09;5094423;28;20660;-82
2023/02/11 10:22:45;;;;;;;16.80;5.40;;;;;;;-145.69;83.97;52547.38;5094305;28;20229;-82
2023/02/11 10:25:19;;;;;;;20.27;5.90;;;;;;;-145.69;78.55;52539.44;5094684;28;20251;-81
2023/02/11 10:27:47;;;;;;;12.00;5.63;;;;;;;-145.69;72.34;52549.34;5094190;28;20205;-81
2023/02/11 10:30:23;;;;;;;16.73;5.60;;;;;;;-145.69;69.10;52575.09;5094668;28;20201;-86
2023/02/11 10:32:57;;;;;;;25.60;7.03;;;;;;;-145.69;79.76;52527.56;5111941;28;20194;-84
2023/02/11 10:35:26;;;;;;;13.03;5.00;;;;;;;-145.69;74.38;52553.31;5095060;28;20307;-86
2023/02/11 10:37:53;;;;;;;19.03;6.30;;;;;;;-145.69;69.46;52563.22;5095428;28;20226;-81
2023/02/11 10:40:25;;;;;;;12.70;4.73;;;;;;;-145.69;65.56;52537.47;5095060;28;20233;-85
2023/02/11 10:42:53;;;;;;;12.40;5.17;;;;;;;-145.69;73.30;52579.06;5114845;28;20248;-84
2023/02/11 10:45:28;;;;;;;15.53;5.27;;;;;;;-145.69;68.41;52561.22;5101806;28;20229;-80
2023/02/11 10:47:57;;;;;;;11.23;4.10;;;;;;;-145.69;71.35;52527.56;5093457;28;20203;-82
2023/02/11 10:50:26;;;;;;;15.47;4.23;;;;;;;-145.69;74.21;52521.63;5093839;28;20202;-79
2023/02/11 10:53:13;;;;;;;13.17;4.73;;;;;;;-145.69;74.44;52551.31;5093981;28;20190;-81
2023/02/11 10:55:52;;;;;;;10.90;4.43;;;;;;;-145.69;72.54;52519.63;5094163;28;20233;-82
2023/02/11 10:58:26;;;;;;;13.07;5.43;;;;;;;-145.69;72.02;52549.34;5105988;28;20227;-82
2023/02/11 11:00:54;;;;;;;14.23;4.30;;;;;;;-145.69;71.34;52559.25;5093977;28;20198;-81
2023/02/11 11:03:25;;;;;;;12.70;4.70;;;;;;;-145.69;68.59;52507.75;5114161;28;20201;-81
2023/02/11 11:05:54;;;;;;;11.00;5.22;;;;;;;-145.69;68.99;52535.47;5107541;28;20513;-81
2023/02/11 11:08:21;;;;;;;11.23;4.80;;;;;;;-145.69;68.87;52525.59;5095069;28;20189;-82
2023/02/11 11:11:02;;;;;;;12.93;4.50;;;;;;;-145.69;74.32;52543.41;5093411;28;20534;-82
2023/02/11 11:13:31;;;;;;;9.97;4.67;;;;;;;-145.69;73.45;52539.44;5093584;28;20206;-81